Current | Forecast
Updated: 11:00 AM +05 on May 01, 2017
Observed at Chelyabinsk, Russia
Temperature 59°F
Humidity 19%
Dew Point 16°F
Wind West at 9 mph
Wind Gust 27 mph
Pressure 30.51 in (Steady)
Conditions Clear
Visibility -
UV N/A
Clouds
Yesterday's Maximum 57°F
Yesterday's Minimum 36°F approx.
Yesterday's Heating Degree Days 19 approx.
Sunrise5:07 AM +05
Sunset8:30 PM +05
Moon Rise9:20 AM +05
Moon Set1:04 AM +05
Moon PhaseMoon Phase
Waxing Crescent
Raw METARMETAR USCC 010600Z 28004G12MPS 250V320 CAVOK 15/M09 Q1033 R27/000060 NOSIG RMK QFE754


Monday
. High: 69° F.
Tuesday
. High: 75° F.
Wednesday
. High: 77° F.
Thursday
. High: 62° F.
Friday
. High: 55° F.
Saturday
. High: 55° F.
Sunday
. High: 50° F.
Monday
. High: 57° F.

Units: English | Metric

Find the Weather for any City, State or Zipcode, or Country:

U.S. State List | Severe Weather | Tropical Storms | Ski Conditions
United States | Canada | Central America | South America | Asia | Europe | Australia | Africa | Islands

Weather Underground

© Copyright 2017
The Weather Company, LLC